createdAt,value
2019-05-05T00:00:08.576Z,4.03
2019-05-05T00:01:08.650Z,4.06
2019-05-05T00:02:08.661Z,4.07
2019-05-05T00:03:08.706Z,4.00
2019-05-05T00:04:08.743Z,4.10
2019-05-05T00:05:08.872Z,4.00
2019-05-05T00:06:08.851Z,4.10
2019-05-05T00:07:08.874Z,4.14
2019-05-05T00:08:08.912Z,4.10
2019-05-05T00:09:08.963Z,4.07
2019-05-05T00:10:09.030Z,4.07
2019-05-05T00:11:09.060Z,4.10
2019-05-05T00:12:09.139Z,4.24
2019-05-05T00:13:09.123Z,4.18
2019-05-05T00:14:09.174Z,4.22
2019-05-05T00:15:09.209Z,4.24
2019-05-05T00:16:09.271Z,4.18
2019-05-05T00:17:09.292Z,4.19
2019-05-05T00:18:09.338Z,4.19
2019-05-05T00:19:09.408Z,4.39
2019-05-05T00:20:09.414Z,4.39
2019-05-05T00:21:09.484Z,4.26
2019-05-05T00:22:09.514Z,4.26
2019-05-05T00:23:09.550Z,4.22
2019-05-05T00:24:09.582Z,4.22
2019-05-05T00:25:09.630Z,4.28
2019-05-05T00:26:09.711Z,4.26
2019-05-05T00:27:09.710Z,4.32
2019-05-05T00:28:09.763Z,4.19
2019-05-05T00:29:09.795Z,4.26
2019-05-05T00:30:09.842Z,4.29
2019-05-05T00:31:09.904Z,4.33
2019-05-05T00:32:09.939Z,4.22
2019-05-05T00:33:09.993Z,4.33
2019-05-05T00:34:10.007Z,4.32
2019-05-05T00:35:10.045Z,4.34
2019-05-05T00:36:10.102Z,4.25
2019-05-05T00:37:10.214Z,4.28
2019-05-05T00:38:10.169Z,4.34
2019-05-05T00:39:10.223Z,4.37
2019-05-05T00:40:10.260Z,4.32
2019-05-05T00:41:10.296Z,4.43
2019-05-05T00:42:10.373Z,4.37
2019-05-05T00:43:10.385Z,4.33
2019-05-05T00:44:10.477Z,4.34
2019-05-05T00:45:10.466Z,4.36
2019-05-05T00:46:10.512Z,4.33
2019-05-05T00:47:10.573Z,4.33
2019-05-05T00:48:10.601Z,4.40
2019-05-05T00:49:10.647Z,4.42
2019-05-05T00:50:10.683Z,4.42
2019-05-05T00:51:10.727Z,4.34
2019-05-05T00:52:10.782Z,4.39
2019-05-05T00:53:10.805Z,4.39
2019-05-05T00:54:10.844Z,4.42
2019-05-05T00:55:10.884Z,4.33
2019-05-05T00:56:10.929Z,4.42
2019-05-05T00:57:11.005Z,4.37
2019-05-05T00:58:11.015Z,4.46
2019-05-05T00:59:11.054Z,4.55
2019-05-05T01:00:11.107Z,4.52
2019-05-05T01:01:11.159Z,4.52
2019-05-05T01:02:11.273Z,4.51
2019-05-05T01:03:11.239Z,4.42
2019-05-05T01:04:11.265Z,4.54
2019-05-05T01:05:11.317Z,4.54
2019-05-05T01:06:11.354Z,4.52
2019-05-05T01:07:11.410Z,4.51
2019-05-05T01:08:11.451Z,4.50
2019-05-05T01:09:11.474Z,4.57
2019-05-05T01:10:11.517Z,4.55
2019-05-05T01:11:11.566Z,4.40
2019-05-05T01:12:11.617Z,4.46
2019-05-05T01:13:11.674Z,4.55
2019-05-05T01:14:11.686Z,4.52
2019-05-05T01:15:11.727Z,4.42
2019-05-05T01:16:11.767Z,4.47
2019-05-05T01:17:11.813Z,4.44
2019-05-05T01:18:11.873Z,4.40
2019-05-05T01:19:11.898Z,4.40
2019-05-05T01:20:11.938Z,4.37
2019-05-05T01:21:11.989Z,4.40
2019-05-05T01:22:14.255Z,4.44
2019-05-05T01:23:12.086Z,4.39
2019-05-05T01:24:14.271Z,4.39
2019-05-05T01:25:12.153Z,4.39
2019-05-05T01:26:14.257Z,4.33
2019-05-05T01:27:12.233Z,4.19
2019-05-05T01:28:14.239Z,4.21
2019-05-05T01:29:12.333Z,4.24
2019-05-05T01:30:12.366Z,4.21
2019-05-05T01:31:14.546Z,4.29
2019-05-05T01:32:12.444Z,4.22
2019-05-05T01:33:14.440Z,4.18
2019-05-05T01:34:12.536Z,4.26
2019-05-05T01:35:14.302Z,4.10
2019-05-05T01:36:14.384Z,4.06
2019-05-05T01:37:12.654Z,4.04
2019-05-05T01:38:14.232Z,4.01
2019-05-05T01:39:14.634Z,4.01
2019-05-05T01:40:14.197Z,3.98
2019-05-05T01:41:14.640Z,4.19
2019-05-05T01:42:14.342Z,4.21
2019-05-05T01:43:14.624Z,4.18
2019-05-05T01:44:15.130Z,4.22
2019-05-05T01:45:14.840Z,4.25
2019-05-05T01:46:14.352Z,4.24
2019-05-05T01:47:14.800Z,4.10
2019-05-05T01:48:14.266Z,4.10
2019-05-05T01:49:14.663Z,4.10
2019-05-05T01:50:18.318Z,3.98
2019-05-05T01:51:14.310Z,4.03
2019-05-05T01:52:14.934Z,4.03
2019-05-05T01:53:15.243Z,4.03
2019-05-05T01:54:14.512Z,4.00
2019-05-05T01:55:14.653Z,3.97
2019-05-05T01:56:15.242Z,3.96
2019-05-05T01:57:14.811Z,3.90
2019-05-05T01:58:15.251Z,3.98
2019-05-05T01:59:14.368Z,4.03
2019-05-05T02:00:14.817Z,4.01
2019-05-05T02:01:15.290Z,4.00
2019-05-05T02:02:14.612Z,4.07
2019-05-05T02:03:14.748Z,4.08
2019-05-05T02:04:14.493Z,3.90
2019-05-05T02:05:14.774Z,3.90
2019-05-05T02:06:14.306Z,3.94
2019-05-05T02:07:14.543Z,3.90
2019-05-05T02:08:15.327Z,4.00
2019-05-05T02:09:15.877Z,3.92
2019-05-05T02:10:15.213Z,3.94
2019-05-05T02:11:15.594Z,4.07
2019-05-05T02:12:15.878Z,3.92
2019-05-05T02:13:15.995Z,3.94
2019-05-05T02:14:15.560Z,4.03
2019-05-05T02:15:14.887Z,3.98
2019-05-05T02:16:15.071Z,3.98
2019-05-05T02:17:14.525Z,3.97
2019-05-05T02:18:14.895Z,4.07
2019-05-05T02:19:14.444Z,4.03
2019-05-05T02:20:15.762Z,3.98
2019-05-05T02:21:14.492Z,3.92
2019-05-05T02:22:14.754Z,3.90
2019-05-05T02:23:15.125Z,4.00
2019-05-05T02:24:14.629Z,3.92
2019-05-05T02:25:14.682Z,4.01
2019-05-05T02:26:15.250Z,3.94
2019-05-05T02:27:14.782Z,3.97
2019-05-05T02:28:15.059Z,3.98
2019-05-05T02:29:14.829Z,4.06
2019-05-05T02:30:16.208Z,3.90
2019-05-05T02:31:16.616Z,3.94
2019-05-05T02:32:15.822Z,3.94
2019-05-05T02:33:15.811Z,3.79
2019-05-05T02:34:16.457Z,3.97
2019-05-05T02:35:16.288Z,3.86
2019-05-05T02:36:15.946Z,3.82
2019-05-05T02:37:16.030Z,3.86
2019-05-05T02:38:15.807Z,3.80
2019-05-05T02:39:15.941Z,3.79
2019-05-05T02:40:16.015Z,3.75
2019-05-05T02:41:15.549Z,3.60
2019-05-05T02:42:15.371Z,3.54
2019-05-05T02:43:15.423Z,3.53
2019-05-05T02:44:15.652Z,3.39
2019-05-05T02:45:15.719Z,3.39
2019-05-05T02:46:15.544Z,3.31
2019-05-05T02:47:15.784Z,3.33
2019-05-05T02:48:15.725Z,3.30
2019-05-05T02:49:15.678Z,3.30
2019-05-05T02:50:15.736Z,3.23
2019-05-05T02:51:15.747Z,3.23
2019-05-05T02:52:15.784Z,3.15
2019-05-05T02:53:15.820Z,3.10
2019-05-05T02:54:15.874Z,3.16
2019-05-05T02:55:15.930Z,3.12
2019-05-05T02:56:15.949Z,3.13
2019-05-05T02:57:15.999Z,3.09
2019-05-05T02:58:16.035Z,3.05
2019-05-05T02:59:16.074Z,3.02
2019-05-05T03:00:16.137Z,2.98
2019-05-05T03:01:16.183Z,3.05
2019-05-05T03:02:16.199Z,3.00
2019-05-05T03:03:16.235Z,3.06
2019-05-05T03:04:16.277Z,3.00
2019-05-05T03:05:16.333Z,3.00
2019-05-05T03:06:16.382Z,2.94
2019-05-05T03:07:16.400Z,2.94
2019-05-05T03:08:16.450Z,2.95
2019-05-05T03:09:16.546Z,3.02
2019-05-05T03:10:16.536Z,3.03
2019-05-05T03:11:16.585Z,3.03
2019-05-05T03:12:16.607Z,2.98
2019-05-05T03:13:16.655Z,2.95
2019-05-05T03:14:16.688Z,3.02
2019-05-05T03:15:16.732Z,2.94
2019-05-05T03:16:16.822Z,2.98
2019-05-05T03:17:16.811Z,2.97
2019-05-05T03:18:16.859Z,2.98
2019-05-05T03:19:16.893Z,3.00
2019-05-05T03:20:16.942Z,3.00
2019-05-05T03:21:17.005Z,2.98
2019-05-05T03:22:17.036Z,2.98
2019-05-05T03:23:17.059Z,3.10
2019-05-05T03:24:17.101Z,3.00
2019-05-05T03:25:17.142Z,3.00
2019-05-05T03:26:17.203Z,3.03
2019-05-05T03:27:17.350Z,2.95
2019-05-05T03:28:17.269Z,3.02
2019-05-05T03:29:17.303Z,2.94
2019-05-05T03:30:17.346Z,3.00
2019-05-05T03:31:17.395Z,2.95
2019-05-05T03:32:17.458Z,2.95
2019-05-05T03:33:17.472Z,2.97
2019-05-05T03:34:17.574Z,2.88
2019-05-05T03:35:17.551Z,2.92
2019-05-05T03:36:17.593Z,2.92
2019-05-05T03:37:17.658Z,2.91
2019-05-05T03:38:17.672Z,2.92
2019-05-05T03:39:17.715Z,2.98
2019-05-05T03:40:17.758Z,2.91
2019-05-05T03:41:17.811Z,2.94
2019-05-05T03:42:17.857Z,2.94
2019-05-05T03:43:17.889Z,2.97
2019-05-05T03:44:17.922Z,2.94
2019-05-05T03:45:17.973Z,2.94
2019-05-05T03:46:18.008Z,2.97
2019-05-05T03:47:18.061Z,2.89
2019-05-05T03:48:18.100Z,2.97
2019-05-05T03:49:18.129Z,2.95
2019-05-05T03:50:18.168Z,3.03
2019-05-05T03:51:21.018Z,3.07
2019-05-05T03:52:18.287Z,2.97
2019-05-05T03:53:18.306Z,3.12
2019-05-05T03:54:18.331Z,3.03
2019-05-05T03:55:18.377Z,3.12
2019-05-05T03:56:18.411Z,3.16
2019-05-05T03:57:18.478Z,3.05
2019-05-05T03:58:18.521Z,3.16
2019-05-05T03:59:18.543Z,3.13
2019-05-05T04:00:18.576Z,3.10
2019-05-05T04:01:18.629Z,3.16
2019-05-05T04:02:18.662Z,3.09
2019-05-05T04:03:18.724Z,3.15
2019-05-05T04:04:18.737Z,3.15
2019-05-05T04:05:18.787Z,3.16
2019-05-05T04:06:18.902Z,3.15
2019-05-05T04:07:18.864Z,3.13
2019-05-05T04:08:18.928Z,3.13
2019-05-05T04:09:18.946Z,3.13
2019-05-05T04:10:18.994Z,3.16
2019-05-05T04:11:19.026Z,3.10
2019-05-05T04:12:19.067Z,3.05
2019-05-05T04:13:19.175Z,3.13
2019-05-05T04:14:19.148Z,3.12
2019-05-05T04:15:19.194Z,3.20
2019-05-05T04:16:19.233Z,3.13
2019-05-05T04:17:19.275Z,3.21
2019-05-05T04:18:19.333Z,3.21
2019-05-05T04:19:19.357Z,3.25
2019-05-05T04:20:19.394Z,3.36
2019-05-05T04:21:30.289Z,3.30
2019-05-05T04:22:19.590Z,3.33
2019-05-05T04:23:19.539Z,3.39
2019-05-05T04:24:19.558Z,3.36
2019-05-05T04:25:19.613Z,3.39
2019-05-05T04:26:19.649Z,3.31
2019-05-05T04:27:19.691Z,3.28
2019-05-05T04:28:19.745Z,3.31
2019-05-05T04:29:19.896Z,3.36
2019-05-05T04:30:19.810Z,3.39
2019-05-05T04:31:19.851Z,3.42
2019-05-05T04:32:19.888Z,3.39
2019-05-05T04:33:19.967Z,3.34
2019-05-05T04:34:19.978Z,3.36
2019-05-05T04:35:20.012Z,3.47
2019-05-05T04:36:20.056Z,3.39
2019-05-05T04:37:20.099Z,3.34
2019-05-05T04:38:20.172Z,3.40
2019-05-05T04:39:20.195Z,3.50
2019-05-05T04:40:20.226Z,3.50
2019-05-05T04:41:20.256Z,3.47
2019-05-05T04:42:20.299Z,3.53
2019-05-05T04:43:20.435Z,3.39
2019-05-05T04:44:20.387Z,3.39
2019-05-05T04:45:20.424Z,3.36
2019-05-05T04:46:20.468Z,3.40
2019-05-05T04:47:20.509Z,3.54
2019-05-05T04:48:20.565Z,3.49
2019-05-05T04:49:20.605Z,3.60
2019-05-05T04:50:20.633Z,3.64
2019-05-05T04:51:20.679Z,3.54
2019-05-05T04:52:20.721Z,3.61
2019-05-05T04:53:20.750Z,3.67
2019-05-05T04:54:20.815Z,3.70
2019-05-05T04:55:20.862Z,3.75
2019-05-05T04:56:20.880Z,3.78
2019-05-05T04:57:20.958Z,3.72
2019-05-05T04:58:20.965Z,3.75
2019-05-05T04:59:21.022Z,3.71
2019-05-05T05:00:21.055Z,3.75
2019-05-05T05:01:21.083Z,3.75
2019-05-05T05:02:21.135Z,3.76
2019-05-05T05:03:21.169Z,3.88
2019-05-05T05:04:21.244Z,3.90
2019-05-05T05:05:21.246Z,3.83
2019-05-05T05:06:21.290Z,3.88
2019-05-05T05:07:21.330Z,3.80
2019-05-05T05:08:21.372Z,3.92
2019-05-05T05:09:23.597Z,3.89
2019-05-05T05:10:21.472Z,3.85
2019-05-05T05:11:21.508Z,3.94
2019-05-05T05:12:23.578Z,3.88
2019-05-05T05:13:21.579Z,4.01
2019-05-05T05:14:21.619Z,3.96
2019-05-05T05:15:23.461Z,3.98
2019-05-05T05:16:21.711Z,3.97
2019-05-05T05:17:21.746Z,3.96
2019-05-05T05:18:23.847Z,4.08
2019-05-05T05:19:24.058Z,3.92
2019-05-05T05:20:21.891Z,4.01
2019-05-05T05:21:23.634Z,4.01
2019-05-05T05:22:24.121Z,4.01
2019-05-05T05:23:21.996Z,4.04
2019-05-05T05:24:23.686Z,4.03
2019-05-05T05:25:23.956Z,4.01
2019-05-05T05:26:24.134Z,4.06
2019-05-05T05:27:24.282Z,4.00
2019-05-05T05:28:23.628Z,4.00
2019-05-05T05:29:23.901Z,4.08
2019-05-05T05:30:24.109Z,4.16
2019-05-05T05:31:24.346Z,4.16
2019-05-05T05:32:24.525Z,4.25
2019-05-05T05:33:23.890Z,4.32
2019-05-05T05:34:23.873Z,4.32
2019-05-05T05:35:24.327Z,4.37
2019-05-05T05:36:24.649Z,4.37
2019-05-05T05:37:24.046Z,4.32
2019-05-05T05:38:24.228Z,4.37
2019-05-05T05:39:24.358Z,4.32
2019-05-05T05:40:23.614Z,4.34
2019-05-05T05:41:23.912Z,4.33
2019-05-05T05:42:24.150Z,4.33
2019-05-05T05:43:22.829Z,4.36
2019-05-05T05:44:25.362Z,4.34
2019-05-05T05:45:23.779Z,4.32
2019-05-05T05:46:24.096Z,4.39
2019-05-05T05:47:24.430Z,4.43
2019-05-05T05:48:23.692Z,4.37
2019-05-05T05:49:24.150Z,4.43
2019-05-05T05:50:24.515Z,4.40
2019-05-05T05:51:23.784Z,4.37
2019-05-05T05:52:24.222Z,4.47
2019-05-05T05:53:24.389Z,4.50
2019-05-05T05:54:23.558Z,4.44
2019-05-05T05:55:23.780Z,4.51
2019-05-05T05:56:24.977Z,4.39
2019-05-05T05:57:24.067Z,4.36
2019-05-05T05:58:24.509Z,4.37
2019-05-05T05:59:24.682Z,4.39
2019-05-05T06:00:23.791Z,4.36
2019-05-05T06:01:23.999Z,4.40
2019-05-05T06:02:24.222Z,4.40
2019-05-05T06:03:24.540Z,4.37
2019-05-05T06:04:23.711Z,4.44
2019-05-05T06:05:23.937Z,4.39
2019-05-05T06:06:24.161Z,4.36
2019-05-05T06:07:24.503Z,4.36
2019-05-05T06:08:24.263Z,4.36
2019-05-05T06:09:23.921Z,4.34
2019-05-05T06:10:26.688Z,4.46
2019-05-05T06:11:24.042Z,4.43
2019-05-05T06:12:24.608Z,4.50
2019-05-05T06:13:24.302Z,4.42
2019-05-05T06:14:24.722Z,4.40
2019-05-05T06:15:24.557Z,4.51
2019-05-05T06:16:24.244Z,4.42
2019-05-05T06:17:24.260Z,4.51
2019-05-05T06:18:24.477Z,4.51
2019-05-05T06:19:24.613Z,4.50
2019-05-05T06:20:24.398Z,4.51
2019-05-05T06:21:24.455Z,4.44
2019-05-05T06:22:29.276Z,4.50
2019-05-05T06:23:24.509Z,4.59
2019-05-05T06:24:24.552Z,4.70
2019-05-05T06:25:26.532Z,4.70
2019-05-05T06:26:24.653Z,4.75
2019-05-05T06:27:24.698Z,4.83
2019-05-05T06:28:24.725Z,4.77
2019-05-05T06:29:24.762Z,4.77
2019-05-05T06:30:24.807Z,4.84
2019-05-05T06:31:24.853Z,4.79
2019-05-05T06:32:24.908Z,4.79
2019-05-05T06:33:24.937Z,4.84
2019-05-05T06:34:24.992Z,4.75
2019-05-05T06:35:25.032Z,4.88
2019-05-05T06:36:25.115Z,4.89
2019-05-05T06:37:25.121Z,4.96
2019-05-05T06:38:25.156Z,4.89
2019-05-05T06:39:25.188Z,4.98
2019-05-05T06:40:25.235Z,4.98
2019-05-05T06:41:25.271Z,4.94
2019-05-05T06:42:25.336Z,5.04
2019-05-05T06:43:25.537Z,4.99
2019-05-05T06:44:25.403Z,5.09
2019-05-05T06:45:25.440Z,5.05
2019-05-05T06:46:25.491Z,5.12
2019-05-05T06:47:25.555Z,5.04
2019-05-05T06:48:25.579Z,4.98
2019-05-05T06:49:25.625Z,5.04
2019-05-05T06:50:25.650Z,5.01
2019-05-05T06:51:25.704Z,5.14
2019-05-05T06:52:25.778Z,5.14
2019-05-05T06:53:25.800Z,5.23
2019-05-05T06:54:25.822Z,5.22
2019-05-05T06:55:25.870Z,5.20
2019-05-05T06:56:25.915Z,5.16
2019-05-05T06:57:25.990Z,5.23
2019-05-05T06:58:26.099Z,5.27
2019-05-05T06:59:26.037Z,5.31
2019-05-05T07:00:26.077Z,5.20
2019-05-05T07:01:26.121Z,5.22
2019-05-05T07:02:26.161Z,5.28
2019-05-05T07:03:26.228Z,5.25
2019-05-05T07:04:26.246Z,5.28
2019-05-05T07:05:26.302Z,5.35
2019-05-05T07:06:26.334Z,5.41
2019-05-05T07:07:26.406Z,5.49
2019-05-05T07:08:26.441Z,5.49
2019-05-05T07:09:26.464Z,5.46
2019-05-05T07:10:26.505Z,5.40
2019-05-05T07:11:26.574Z,5.37
2019-05-05T07:12:26.613Z,5.37
2019-05-05T07:13:26.640Z,5.43
2019-05-05T07:14:26.704Z,5.48
2019-05-05T07:15:26.728Z,5.57
2019-05-05T07:16:26.759Z,5.41
2019-05-05T07:17:26.829Z,5.40
2019-05-05T07:18:26.899Z,5.41
2019-05-05T07:19:26.889Z,5.50
2019-05-05T07:20:26.961Z,5.55
2019-05-05T07:21:26.977Z,5.52
2019-05-05T07:22:27.017Z,5.68
2019-05-05T07:23:27.079Z,5.68
2019-05-05T07:24:27.111Z,5.74
2019-05-05T07:25:39.867Z,5.91
2019-05-05T07:26:27.198Z,5.85
2019-05-05T07:27:27.242Z,5.93
2019-05-05T07:28:27.296Z,5.93
2019-05-05T07:29:27.328Z,5.82
2019-05-05T07:30:27.364Z,5.82
2019-05-05T07:31:27.404Z,5.68
2019-05-05T07:32:27.447Z,5.88
2019-05-05T07:33:27.528Z,5.83
2019-05-05T07:34:27.535Z,5.93
2019-05-05T07:35:27.581Z,5.98
2019-05-05T07:36:27.630Z,6.00
2019-05-05T07:37:27.673Z,6.10
2019-05-05T07:38:27.752Z,6.16
2019-05-05T07:39:27.754Z,6.38
2019-05-05T07:40:27.796Z,6.35
2019-05-05T07:41:27.854Z,6.40
2019-05-05T07:42:27.893Z,6.38
2019-05-05T07:43:27.962Z,6.41
2019-05-05T07:44:29.754Z,6.33
2019-05-05T07:45:28.022Z,6.40
2019-05-05T07:46:28.069Z,6.33
2019-05-05T07:47:28.109Z,6.48
2019-05-05T07:48:28.180Z,6.46
2019-05-05T07:49:28.189Z,6.61
2019-05-05T07:50:32.171Z,6.62
2019-05-05T07:51:28.283Z,6.69
2019-05-05T07:52:28.334Z,6.72
2019-05-05T07:53:28.396Z,6.79
2019-05-05T07:54:28.415Z,6.77
2019-05-05T07:55:28.460Z,6.72
2019-05-05T07:56:28.499Z,6.65
2019-05-05T07:57:28.549Z,6.72
2019-05-05T07:58:28.607Z,6.69
2019-05-05T07:59:28.647Z,6.65
2019-05-05T08:00:28.672Z,6.71
2019-05-05T08:01:28.728Z,6.66
2019-05-05T08:02:28.764Z,6.71
2019-05-05T08:03:28.811Z,6.68
2019-05-05T08:04:28.872Z,6.69
2019-05-05T08:05:28.894Z,6.79
2019-05-05T08:06:28.949Z,6.79
2019-05-05T08:07:29.029Z,6.91
2019-05-05T08:08:29.037Z,6.91
2019-05-05T08:09:29.156Z,6.90
2019-05-05T08:10:29.127Z,6.84
2019-05-05T08:11:29.162Z,6.72
2019-05-05T08:12:29.204Z,6.81
2019-05-05T08:13:29.259Z,6.65
2019-05-05T08:14:29.313Z,6.83
2019-05-05T08:15:29.340Z,6.91
2019-05-05T08:16:29.381Z,6.95
2019-05-05T08:17:29.430Z,6.83
2019-05-05T08:18:29.470Z,6.94
2019-05-05T08:19:29.547Z,6.89
2019-05-05T08:20:29.565Z,6.90
2019-05-05T08:21:29.614Z,6.90
2019-05-05T08:22:29.659Z,6.95
2019-05-05T08:23:32.655Z,6.90
2019-05-05T08:24:29.765Z,7.05
2019-05-05T08:25:37.391Z,7.02
2019-05-05T08:26:29.844Z,6.90
2019-05-05T08:27:29.871Z,6.91
2019-05-05T08:28:29.936Z,6.94
2019-05-05T08:29:29.982Z,7.13
2019-05-05T08:30:30.005Z,7.17
2019-05-05T08:31:30.059Z,7.35
2019-05-05T08:32:32.612Z,7.49
2019-05-05T08:33:30.141Z,7.59
2019-05-05T08:34:30.220Z,7.71
2019-05-05T08:35:30.254Z,7.72
2019-05-05T08:36:30.272Z,7.90
2019-05-05T08:37:30.327Z,8.11
2019-05-05T08:38:30.369Z,8.40
2019-05-05T08:39:30.447Z,8.55
2019-05-05T08:40:30.462Z,8.73
2019-05-05T08:41:30.507Z,8.94
2019-05-05T08:42:30.543Z,9.10
2019-05-05T08:43:30.597Z,8.84
2019-05-05T08:44:30.664Z,8.97
2019-05-05T08:45:30.690Z,9.02
2019-05-05T08:46:30.740Z,9.21
2019-05-05T08:47:30.779Z,9.42
2019-05-05T08:48:30.833Z,9.49
2019-05-05T08:49:30.884Z,9.76
2019-05-05T08:50:30.936Z,9.82
2019-05-05T08:51:30.959Z,9.94
2019-05-05T08:52:31.011Z,10.17
2019-05-05T08:53:44.194Z,10.03
2019-05-05T08:54:31.094Z,9.61
2019-05-05T08:55:31.179Z,9.57
2019-05-05T08:56:31.202Z,9.58
2019-05-05T08:57:31.235Z,9.70
2019-05-05T08:58:31.289Z,9.88
2019-05-05T08:59:33.552Z,9.81
2019-05-05T09:00:33.637Z,9.57
2019-05-05T09:01:34.185Z,9.31
2019-05-05T09:02:33.181Z,8.84
2019-05-05T09:03:33.554Z,8.53
2019-05-05T09:04:31.571Z,8.44
2019-05-05T09:05:31.647Z,8.25
2019-05-05T09:06:31.660Z,8.45
2019-05-05T09:07:33.647Z,8.51
2019-05-05T09:08:31.766Z,8.40
2019-05-05T09:09:33.505Z,8.65
2019-05-05T09:10:34.087Z,8.53
2019-05-05T09:11:31.892Z,8.30
2019-05-05T09:12:33.778Z,8.45
2019-05-05T09:13:33.878Z,8.69
2019-05-05T09:14:32.067Z,8.88
2019-05-05T09:15:33.669Z,9.32
2019-05-05T09:16:33.523Z,9.73
2019-05-05T09:17:33.661Z,10.06
2019-05-05T09:18:33.949Z,10.15
2019-05-05T09:19:34.331Z,10.10
2019-05-05T09:20:34.598Z,10.40
2019-05-05T09:21:34.367Z,10.43
2019-05-05T09:22:34.667Z,10.30
2019-05-05T09:23:34.567Z,10.42
2019-05-05T09:24:34.094Z,10.40
2019-05-05T09:25:34.127Z,10.36
2019-05-05T09:26:34.364Z,10.55
2019-05-05T09:27:33.851Z,10.76
2019-05-05T09:28:34.100Z,10.74
2019-05-05T09:29:34.296Z,10.88
2019-05-05T09:30:33.945Z,10.84
2019-05-05T09:31:34.379Z,10.91
2019-05-05T09:32:34.447Z,10.53
2019-05-05T09:33:33.888Z,10.22
2019-05-05T09:34:34.095Z,9.93
2019-05-05T09:35:34.239Z,9.67
2019-05-05T09:36:34.810Z,9.49
2019-05-05T09:37:33.991Z,9.18
2019-05-05T09:38:34.736Z,9.43
2019-05-05T09:39:34.571Z,9.32
2019-05-05T09:40:33.529Z,9.58
2019-05-05T09:41:34.005Z,9.86
2019-05-05T09:42:34.167Z,10.09
2019-05-05T09:43:34.477Z,10.32
2019-05-05T09:44:34.653Z,10.53
2019-05-05T09:45:33.682Z,10.78
2019-05-05T09:46:34.074Z,11.10
2019-05-05T09:47:34.373Z,11.20
2019-05-05T09:48:33.705Z,11.38
2019-05-05T09:49:33.953Z,11.49
2019-05-05T09:50:34.138Z,11.53
2019-05-05T09:51:34.689Z,11.21
2019-05-05T09:52:33.883Z,11.10
2019-05-05T09:53:34.408Z,11.06
2019-05-05T09:54:34.548Z,11.17
2019-05-05T09:55:33.981Z,11.32
2019-05-05T09:56:34.051Z,11.09
2019-05-05T09:57:34.481Z,11.13
2019-05-05T09:58:34.733Z,11.17
2019-05-05T09:59:34.947Z,11.19
2019-05-05T10:00:34.230Z,11.29
2019-05-05T10:01:34.273Z,11.39
2019-05-05T10:02:34.565Z,11.49
2019-05-05T10:03:34.391Z,11.50
2019-05-05T10:04:34.432Z,11.32
2019-05-05T10:05:34.471Z,11.31
2019-05-05T10:06:34.520Z,11.41
2019-05-05T10:07:34.661Z,11.44
2019-05-05T10:08:34.612Z,11.74
2019-05-05T10:09:34.748Z,12.02
2019-05-05T10:10:34.709Z,12.21
2019-05-05T10:11:35.380Z,12.24
2019-05-05T10:12:34.823Z,12.39
2019-05-05T10:13:34.865Z,12.33
2019-05-05T10:14:34.903Z,12.29
2019-05-05T10:15:34.954Z,11.94
2019-05-05T10:16:35.009Z,11.36
2019-05-05T10:17:35.074Z,11.16
2019-05-05T10:18:35.986Z,10.99
2019-05-05T10:19:35.159Z,10.60
2019-05-05T10:20:35.201Z,10.60
2019-05-05T10:21:35.254Z,10.53
2019-05-05T10:22:35.325Z,10.71
2019-05-05T10:23:35.345Z,10.80
2019-05-05T10:24:35.388Z,10.89
2019-05-05T10:25:35.441Z,10.74
2019-05-05T10:26:35.497Z,10.81
2019-05-05T10:27:44.373Z,10.77
2019-05-05T10:28:35.628Z,10.63
2019-05-05T10:29:35.641Z,10.43
2019-05-05T10:30:35.693Z,10.39
2019-05-05T10:31:35.731Z,10.28
2019-05-05T10:32:35.811Z,10.15
2019-05-05T10:33:36.475Z,10.09
2019-05-05T10:34:35.902Z,10.06
2019-05-05T10:35:35.939Z,10.00
2019-05-05T10:36:36.010Z,9.88
2019-05-05T10:37:36.025Z,9.79
2019-05-05T10:38:36.097Z,9.66
2019-05-05T10:39:36.113Z,9.73
2019-05-05T10:40:36.176Z,9.60
2019-05-05T10:41:36.221Z,9.63
2019-05-05T10:42:36.257Z,9.58
2019-05-05T10:43:36.360Z,9.56
2019-05-05T10:44:36.357Z,9.50
2019-05-05T10:45:36.398Z,9.48
2019-05-05T10:46:36.451Z,9.57
2019-05-05T10:47:36.502Z,9.56
2019-05-05T10:48:36.562Z,9.70
2019-05-05T10:49:36.596Z,9.86
2019-05-05T10:50:36.761Z,9.83
2019-05-05T10:51:36.695Z,9.93
2019-05-05T10:52:36.731Z,10.07
2019-05-05T10:53:36.792Z,10.17
2019-05-05T10:54:43.974Z,10.34
2019-05-05T10:55:36.872Z,10.53
2019-05-05T10:56:36.921Z,10.73
2019-05-05T10:57:37.057Z,10.74
2019-05-05T10:58:37.009Z,11.03
2019-05-05T10:59:37.092Z,11.34
2019-05-05T11:00:37.113Z,11.44
2019-05-05T11:01:37.178Z,11.29
2019-05-05T11:02:37.208Z,11.14
2019-05-05T11:03:37.250Z,11.10
2019-05-05T11:04:37.418Z,10.77
2019-05-05T11:05:37.356Z,10.78
2019-05-05T11:06:37.402Z,10.56
2019-05-05T11:07:37.451Z,10.24
2019-05-05T11:08:37.492Z,9.93
2019-05-05T11:09:37.563Z,9.97
2019-05-05T11:10:37.605Z,10.17
2019-05-05T11:11:37.664Z,10.46
2019-05-05T11:12:37.681Z,10.51
2019-05-05T11:13:37.751Z,10.66
2019-05-05T11:14:37.782Z,10.96
2019-05-05T11:15:37.829Z,11.10
2019-05-05T11:16:37.869Z,11.31
2019-05-05T11:17:37.922Z,11.24
2019-05-05T11:18:38.017Z,11.09
2019-05-05T11:19:38.024Z,11.06
2019-05-05T11:20:38.127Z,10.81
2019-05-05T11:21:38.112Z,10.59
2019-05-05T11:22:38.161Z,10.25
2019-05-05T11:23:38.208Z,10.03
2019-05-05T11:24:38.281Z,9.89
2019-05-05T11:25:38.306Z,9.70
2019-05-05T11:26:38.381Z,9.49
2019-05-05T11:27:38.436Z,9.50
2019-05-05T11:28:38.453Z,9.42
2019-05-05T11:29:38.517Z,9.46
2019-05-05T11:30:38.556Z,9.46
2019-05-05T11:31:38.590Z,9.73
2019-05-05T11:32:38.642Z,10.14
2019-05-05T11:33:38.693Z,10.52
2019-05-05T11:34:38.761Z,10.88
2019-05-05T11:35:38.826Z,11.20
2019-05-05T11:36:38.844Z,11.53
2019-05-05T11:37:38.875Z,11.83
2019-05-05T11:38:41.488Z,12.23
2019-05-05T11:39:39.005Z,12.26
2019-05-05T11:40:39.048Z,12.15
2019-05-05T11:41:39.068Z,12.31
2019-05-05T11:42:39.128Z,12.23
2019-05-05T11:43:39.178Z,12.27
2019-05-05T11:44:39.248Z,12.38
2019-05-05T11:45:39.289Z,11.74
2019-05-05T11:46:39.430Z,11.27
2019-05-05T11:47:39.372Z,10.68
2019-05-05T11:48:39.420Z,10.40
2019-05-05T11:49:39.467Z,10.28
2019-05-05T11:50:39.514Z,10.33
2019-05-05T11:51:39.584Z,10.26
2019-05-05T11:52:39.684Z,10.03
2019-05-05T11:53:39.662Z,10.36
2019-05-05T11:54:39.701Z,10.74
2019-05-05T11:55:39.793Z,10.84
2019-05-05T11:56:39.820Z,10.95
2019-05-05T11:57:39.849Z,11.27
2019-05-05T11:58:39.900Z,11.20
2019-05-05T11:59:39.966Z,10.94
2019-05-05T12:00:40.015Z,10.68
2019-05-05T12:01:40.061Z,10.60
2019-05-05T12:02:40.114Z,10.33
2019-05-05T12:03:40.150Z,10.26
2019-05-05T12:04:40.195Z,10.28
2019-05-05T12:05:40.235Z,10.25
2019-05-05T12:06:40.365Z,10.15
2019-05-05T12:07:40.339Z,10.07
2019-05-05T12:08:42.943Z,10.06
2019-05-05T12:09:40.434Z,10.52
2019-05-05T12:10:40.479Z,10.89
2019-05-05T12:11:40.552Z,11.46
2019-05-05T12:12:40.584Z,11.83
2019-05-05T12:13:40.635Z,12.16
2019-05-05T12:14:40.668Z,12.37
2019-05-05T12:15:40.742Z,12.67
2019-05-05T12:16:40.797Z,12.93
2019-05-05T12:17:40.818Z,13.09
2019-05-05T12:18:40.889Z,13.02
2019-05-05T12:19:40.924Z,13.15
2019-05-05T12:20:40.979Z,13.15
2019-05-05T12:21:41.042Z,13.15
2019-05-05T12:22:41.102Z,13.11
2019-05-05T12:23:41.123Z,13.03
2019-05-05T12:24:41.165Z,12.51
2019-05-05T12:25:43.581Z,12.12
2019-05-05T12:26:41.302Z,11.77
2019-05-05T12:27:41.338Z,11.47
2019-05-05T12:28:41.373Z,11.19
2019-05-05T12:29:41.432Z,11.25
2019-05-05T12:30:41.490Z,11.24
2019-05-05T12:31:41.539Z,11.46
2019-05-05T12:32:43.741Z,11.86
2019-05-05T12:33:41.618Z,12.19
2019-05-05T12:34:41.685Z,12.71
2019-05-05T12:35:41.726Z,13.04
2019-05-05T12:36:41.777Z,12.93
2019-05-05T12:37:41.869Z,12.67
2019-05-05T12:38:43.777Z,12.77
2019-05-05T12:39:44.107Z,12.79
2019-05-05T12:40:44.157Z,12.79
2019-05-05T12:41:42.018Z,12.87
2019-05-05T12:42:43.865Z,12.57
2019-05-05T12:43:43.986Z,12.13
2019-05-05T12:44:42.171Z,11.54
2019-05-05T12:45:43.939Z,11.17
2019-05-05T12:46:44.105Z,10.99
2019-05-05T12:47:43.994Z,10.95
2019-05-05T12:48:43.791Z,10.91
2019-05-05T12:49:43.987Z,11.21
2019-05-05T12:50:44.109Z,11.72
2019-05-05T12:51:43.595Z,11.87
2019-05-05T12:52:44.096Z,11.83
2019-05-05T12:53:42.670Z,11.83
2019-05-05T12:54:44.083Z,12.08
2019-05-05T12:55:44.562Z,12.51
2019-05-05T12:56:44.562Z,12.89
2019-05-05T12:57:43.605Z,13.37
2019-05-05T12:58:44.023Z,13.61
2019-05-05T12:59:44.404Z,13.20
2019-05-05T13:00:43.515Z,13.40
2019-05-05T13:01:44.106Z,13.47
2019-05-05T13:02:44.198Z,13.55
2019-05-05T13:03:43.709Z,13.69
2019-05-05T13:04:43.182Z,13.41
2019-05-05T13:05:44.637Z,12.84
2019-05-05T13:06:45.040Z,12.41
2019-05-05T13:07:44.168Z,12.12
2019-05-05T13:08:44.496Z,11.93
2019-05-05T13:09:44.102Z,12.19
2019-05-05T13:10:44.275Z,12.49
2019-05-05T13:11:43.742Z,12.92